LiveATC.Net - Listen to live air traffic control over the Internet!


ICAO: KFLL  IATA: FLL   Airport: Fort Lauderdale/Hollywood International Airport
City: Fort Lauderdale   State/Province: Florida
Country: United States   Continent: North America
KFLL METAR Weather: KFLL 301953Z 13015KT 10SM FEW040 BKN200 32/23 A3000 RMK AO2 SLP158 T03220228
KFLL Flight Activity (FlightAware)
KFLL Webcam: (Airport Webcams)
KFLL Airport Info   (AirNav) (iFlightPlanner)
KFLL VFR Sectional Chart   (iFlightPlanner) 
KFLL IFR Low Chart   (iFlightPlanner) 
KFLL Ground/Tower
Feed Status: DOWN
Last heard on: 2016-07-29 19:28:03 (1 days 1 hours 10 minutes ago)
KFLL Ground/Tower Audio Archives
FacilityFrequency
KFLL Ground121.400
KFLL Tower Rwy 10LR/28RL119.300


NOTICE

Unauthorized use prohibited. See LiveATC.net Terms of Service


Find LiveATC Audio Streams


Airport/ARTCC Code

Frequency
(e.g., 124.400, 128.75)
Site-wide search

Browse LiveATC Feeds
LiveATC Coverage Map
Top 50 LiveATC Feeds
Bad Weather Areas

LiveATC FAQ
Offer a LiveATC Feed
Contact LiveATC.net
Press Inquiries

LiveATC on iPhone
LiveATC on Android

Windows Phone
Windows 8/10

LiveATC Mobile
(Mobile browser)

ATC Audio Archives
Interesting Recordings

LiveATC Forums


Home Page
About LiveATC.net
Make a Donation
LiveATC Store

Terms of Use
Privacy Policy

Canadian Air Freqs

AIRMETs/SIGMETs

FAA Airport Status
Nat'l Airspace Status
Arrival Demand Charts


Server Software By:
Icecast.org
Liquidsoap